Time;durP1;ratioP1;P1;durP2;ratioP2;P2;SDS_P1;SDS_P2;PMS_P1;PMS_P2;Temp;Humidity;BMP_temperature;BMP_pressure;BME280_temperature;BME280_humidity;BME280_pressure;Samples;Min_cycle;Max_cycle;Signal;HPM_P1;HPM_P2
2022/02/02 00:02:58;;;;;;;21.80;9.82;;;;;;;-1.01;100.00;94092.41;5045510;28;20055;-47
2022/02/02 00:05:17;;;;;;;20.85;10.85;;;;;;;-1.00;100.00;94086.31;5036149;28;20063;-48
2022/02/02 00:07:56;;;;;;;32.50;12.50;;;;;;;-0.99;100.00;94085.34;5044966;28;20060;-48
2022/02/02 00:13:16;;;;;;;17.77;9.38;;;;;;;-1.00;100.00;94088.88;5048539;28;20044;-46
2022/02/02 00:21:13;;;;;;;23.17;11.38;;;;;;;-1.00;100.00;94077.84;5024836;28;20057;-47
2022/02/02 00:23:45;;;;;;;17.73;9.35;;;;;;;-1.04;100.00;94087.63;5055101;28;20045;-46
2022/02/02 00:26:18;;;;;;;25.52;10.38;;;;;;;-1.06;100.00;94084.47;5048566;28;20297;-46
2022/02/02 00:28:50;;;;;;;18.52;9.05;;;;;;;-1.07;100.00;94082.88;5050015;28;20053;-46
2022/02/02 00:31:25;;;;;;;21.52;11.20;;;;;;;-1.07;100.00;94088.00;5047688;28;20052;-47
2022/02/02 00:34:00;;;;;;;18.67;10.45;;;;;;;-1.06;100.00;94079.38;5053679;28;20052;-51
2022/02/02 00:36:42;;;;;;;22.13;11.30;;;;;;;-1.07;100.00;94077.75;5052895;28;20093;-47
2022/02/02 00:39:09;;;;;;;30.17;12.80;;;;;;;-1.03;100.00;94073.88;5048086;28;20041;-46
2022/02/02 00:41:36;;;;;;;21.48;10.55;;;;;;;-1.11;100.00;94073.19;5049280;28;20052;-46
2022/02/02 00:44:04;;;;;;;24.27;13.00;;;;;;;-1.06;100.00;94071.69;5050177;28;20041;-47
2022/02/02 00:46:32;;;;;;;23.05;10.02;;;;;;;-1.12;100.00;94069.81;5047878;28;20437;-47
2022/02/02 00:49:04;;;;;;;14.73;7.68;;;;;;;-1.13;100.00;94073.38;5050154;28;20049;-48
2022/02/02 00:51:41;;;;;;;33.55;12.65;;;;;;;-1.10;100.00;94073.00;5048144;28;20041;-51
2022/02/02 00:54:10;;;;;;;29.98;12.57;;;;;;;-1.10;100.00;94072.22;5051354;28;20048;-49
2022/02/02 00:56:37;;;;;;;28.67;12.10;;;;;;;-1.10;100.00;94073.00;5047298;28;20048;-48
2022/02/02 00:59:04;;;;;;;35.10;16.77;;;;;;;-1.08;100.00;94071.09;5047443;28;20045;-47
2022/02/02 01:01:31;;;;;;;31.10;13.07;;;;;;;-1.05;100.00;94065.59;5053702;28;20116;-51
2022/02/02 01:03:58;;;;;;;22.15;11.63;;;;;;;-1.07;100.00;94057.31;5047840;28;20045;-48
2022/02/02 01:06:27;;;;;;;25.23;12.93;;;;;;;-1.07;100.00;94057.31;5053933;28;20048;-48
2022/02/02 01:19:43;;;;;;;24.58;10.40;;;;;;;-1.14;100.00;94033.44;5053051;28;20037;-48
2022/02/02 01:30:04;;;;;;;26.35;13.70;;;;;;;-1.10;100.00;94016.78;5049863;28;20041;-51
2022/02/02 01:32:31;;;;;;;22.88;12.05;;;;;;;-1.19;100.00;94007.63;5049792;28;20447;-51
2022/02/02 01:34:58;;;;;;;35.92;16.50;;;;;;;-1.22;100.00;93997.78;5051556;28;20053;-46
2022/02/02 01:37:26;;;;;;;37.90;16.45;;;;;;;-1.13;100.00;94014.59;5052544;28;20134;-47
2022/02/02 01:40:00;;;;;;;28.17;13.23;;;;;;;-1.13;100.00;94006.13;5050054;28;20045;-48
2022/02/02 01:42:35;;;;;;;29.88;13.95;;;;;;;-1.15;100.00;93998.66;5054470;28;20051;-47
2022/02/02 01:45:11;;;;;;;24.40;12.57;;;;;;;-1.17;100.00;93990.34;5048286;28;20041;-48
2022/02/02 01:47:49;;;;;;;34.00;13.65;;;;;;;-1.17;100.00;93985.25;5045905;28;20043;-46
2022/02/02 01:50:21;;;;;;;25.67;14.85;;;;;;;-1.17;100.00;93985.25;5046789;28;20044;-47
2022/02/02 01:55:40;;;;;;;34.17;15.20;;;;;;;-1.20;100.00;93977.94;5048619;28;20045;-46
2022/02/02 02:00:54;;;;;;;33.60;14.73;;;;;;;-1.15;100.00;93970.53;5052182;28;20036;-46
2022/02/02 02:03:22;;;;;;;36.40;15.93;;;;;;;-1.17;100.00;93969.91;5046435;28;20087;-47
2022/02/02 02:05:49;;;;;;;32.15;13.75;;;;;;;-1.13;100.00;93965.22;5047134;28;20048;-46
2022/02/02 02:08:16;;;;;;;29.80;13.23;;;;;;;-1.18;100.00;93968.34;5047380;28;20056;-47
2022/02/02 02:10:43;;;;;;;33.78;14.50;;;;;;;-1.23;100.00;93961.19;5047023;28;20438;-51
2022/02/02 02:13:22;;;;;;;37.15;14.20;;;;;;;-1.20;100.00;93965.19;5047294;28;20049;-46
2022/02/02 02:15:49;;;;;;;30.02;14.50;;;;;;;-1.18;100.00;93958.13;5046248;28;20431;-47
2022/02/02 02:18:17;;;;;;;29.80;13.38;;;;;;;-1.17;100.00;93954.56;5046277;28;20036;-46
2022/02/02 02:20:44;;;;;;;29.92;12.88;;;;;;;-1.23;100.00;93950.19;5045791;28;20465;-46
2022/02/02 02:23:11;;;;;;;34.45;14.00;;;;;;;-1.18;100.00;93963.22;5046171;28;20052;-47
2022/02/02 02:25:41;;;;;;;27.58;14.05;;;;;;;-1.14;100.00;93953.44;5049875;28;20041;-50
2022/02/02 02:31:07;;;;;;;31.40;15.90;;;;;;;-1.10;100.00;93955.44;5047707;28;20033;-51
2022/02/02 02:55:50;;;;;;;18.88;10.02;;;;;;;-0.92;100.00;93956.81;5044675;28;20037;-46
2022/02/02 03:55:33;;;;;;;34.33;17.85;;;;;;;-1.15;100.00;93922.00;5049679;28;20036;-50
2022/02/02 04:10:42;;;;;;;28.30;15.20;;;;;;;-1.28;100.00;93921.84;5048942;28;20057;-46
2022/02/02 04:13:23;;;;;;;28.77;14.77;;;;;;;-1.33;100.00;93934.34;5048934;28;21785;-48
2022/02/02 04:37:50;;;;;;;27.75;12.18;;;;;;;-1.44;100.00;93941.53;5051003;28;20107;-47
2022/02/02 05:07:36;;;;;;;34.22;16.83;;;;;;;-1.63;100.00;93944.63;5051052;28;20040;-47
2022/02/02 05:10:16;;;;;;;22.67;12.40;;;;;;;-1.70;100.00;93949.63;5050618;28;20076;-46
2022/02/02 05:21:06;;;;;;;27.92;12.52;;;;;;;-1.76;100.00;93953.69;5047173;28;20044;-47
2022/02/02 05:53:10;;;;;;;33.47;16.38;;;;;;;-1.78;100.00;93973.50;5046375;28;20047;-45
2022/02/02 05:55:43;;;;;;;28.80;12.95;;;;;;;-1.83;100.00;93965.56;5043952;28;20045;-47
2022/02/02 05:58:11;;;;;;;27.77;14.18;;;;;;;-1.76;100.00;93970.78;5045531;28;20067;-45
2022/02/02 06:00:40;;;;;;;23.65;13.32;;;;;;;-1.74;100.00;93977.28;5047804;28;20045;-45
2022/02/02 06:03:11;;;;;;;28.25;11.65;;;;;;;-1.73;100.00;93989.09;5044622;28;20049;-46
2022/02/02 06:05:39;;;;;;;21.13;10.75;;;;;;;-1.76;100.00;93975.88;5045843;28;20037;-47
2022/02/02 06:08:11;;;;;;;24.17;13.25;;;;;;;-1.73;100.00;93981.44;5046138;28;20045;-45
2022/02/02 06:10:41;;;;;;;28.00;13.00;;;;;;;-1.65;100.00;93979.75;5046455;28;20048;-45
2022/02/02 06:13:08;;;;;;;32.00;16.58;;;;;;;-1.67;100.00;93986.81;5046437;28;20079;-46
2022/02/02 06:15:36;;;;;;;15.10;9.10;;;;;;;-1.69;100.00;93991.25;5046099;28;20044;-46
2022/02/02 06:18:04;;;;;;;26.20;13.80;;;;;;;-1.69;100.00;93996.38;5046532;28;20434;-45
2022/02/02 06:20:33;;;;;;;30.67;17.65;;;;;;;-1.63;100.00;94006.69;5046042;28;20131;-46
2022/02/02 06:23:13;;;;;;;33.03;15.77;;;;;;;-1.64;100.00;93999.19;5046116;28;20495;-45
2022/02/02 06:25:48;;;;;;;31.30;15.35;;;;;;;-1.65;100.00;93997.63;5047042;28;20037;-45
2022/02/02 06:28:23;;;;;;;32.45;15.95;;;;;;;-1.61;100.00;94009.06;5046465;28;20052;-46
2022/02/02 06:31:02;;;;;;;24.48;12.57;;;;;;;-1.64;100.00;94004.31;5046387;28;20047;-47
2022/02/02 06:33:52;;;;;;;30.48;13.65;;;;;;;-1.68;100.00;93998.75;5045050;28;20040;-46
2022/02/02 06:36:20;;;;;;;28.25;14.55;;;;;;;-1.60;100.00;94014.00;5050519;28;20144;-47
2022/02/02 06:38:48;;;;;;;31.85;15.32;;;;;;;-1.56;100.00;94017.00;5048801;28;20067;-46
2022/02/02 06:41:16;;;;;;;41.05;17.98;;;;;;;-1.49;100.00;94025.53;5045545;28;20138;-46
2022/02/02 06:43:44;;;;;;;34.20;18.65;;;;;;;-1.48;100.00;94019.44;5046431;28;20048;-45
2022/02/02 06:46:13;;;;;;;39.17;16.95;;;;;;;-1.47;100.00;94021.03;5045818;28;20045;-48
2022/02/02 06:48:40;;;;;;;38.95;16.08;;;;;;;-1.46;100.00;94020.09;5045805;28;20060;-48
2022/02/02 06:51:15;;;;;;;28.35;14.52;;;;;;;-1.47;100.00;94018.50;5048579;28;20053;-46
2022/02/02 06:54:03;;;;;;;27.15;14.70;;;;;;;-1.52;100.00;94020.78;5047213;28;20047;-46
2022/02/02 06:59:52;;;;;;;36.75;14.55;;;;;;;-1.47;100.00;94008.28;5045682;28;20044;-46
2022/02/02 07:10:43;;;;;;;29.90;16.08;;;;;;;-1.42;100.00;94023.88;5047666;28;20064;-46
2022/02/02 07:13:37;;;;;;;30.35;14.65;;;;;;;-1.38;100.00;94027.66;5045760;28;20059;-46
2022/02/02 07:19:15;;;;;;;26.35;11.48;;;;;;;-1.37;100.00;94026.69;5048787;28;20132;-48
2022/02/02 07:29:50;;;;;;;28.70;13.20;;;;;;;-1.37;100.00;94031.81;5048322;28;20033;-48
2022/02/02 07:32:54;;;;;;;27.85;14.70;;;;;;;-1.33;100.00;94018.66;5050004;28;20651;-47
2022/02/02 07:37:49;;;;;;;29.20;15.85;;;;;;;-1.23;100.00;94037.06;5049061;28;20036;-50
2022/02/02 07:40:19;;;;;;;24.98;12.07;;;;;;;-1.16;100.00;94037.94;5048411;28;20041;-47
2022/02/02 07:42:49;;;;;;;34.47;15.48;;;;;;;-1.25;100.00;94039.00;5048362;28;20049;-47
2022/02/02 07:45:20;;;;;;;26.17;14.18;;;;;;;-1.24;100.00;94045.69;5045088;28;20045;-47
2022/02/02 07:48:07;;;;;;;35.58;17.05;;;;;;;-1.14;100.00;94051.34;5045011;28;20049;-46
2022/02/02 07:50:35;;;;;;;30.92;17.15;;;;;;;-1.13;100.00;94047.81;5045131;28;20967;-46
2022/02/02 07:53:10;;;;;;;38.00;18.60;;;;;;;-1.13;100.00;94037.59;5049002;28;20453;-47
2022/02/02 07:55:40;;;;;;;;;;;;;;;-1.03;100.00;94038.09;5048774;28;20039;-47
2022/02/02 07:58:08;;;;;;;26.77;13.90;;;;;;;-0.99;100.00;94039.34;5046873;28;19935;-46
2022/02/02 08:00:36;;;;;;;41.00;17.70;;;;;;;-0.98;100.00;94029.91;5049067;28;20044;-48
2022/02/02 08:05:32;;;;;;;25.05;10.60;;;;;;;-0.88;100.00;94029.59;5052437;28;20129;-45
2022/02/02 08:10:33;;;;;;;30.02;14.80;;;;;;;-0.63;100.00;94035.19;5047980;28;20440;-46
2022/02/02 08:13:08;;;;;;;26.70;12.85;;;;;;;-0.60;100.00;94027.94;5043620;28;20129;-46
2022/02/02 08:15:39;;;;;;;19.42;9.98;;;;;;;-0.51;100.00;94027.84;5047081;28;20055;-45
2022/02/02 08:18:06;;;;;;;29.25;15.20;;;;;;;-0.35;100.00;94034.50;5047441;28;20041;-47
2022/02/02 08:20:33;;;;;;;37.08;16.75;;;;;;;-0.19;100.00;94039.34;5047711;28;20044;-46
2022/02/02 08:23:00;;;;;;;32.92;17.83;;;;;;;-0.05;100.00;94020.56;5047163;28;20044;-46
2022/02/02 08:25:30;;;;;;;37.85;17.48;;;;;;;0.05;100.00;94030.47;5051214;28;20048;-49
2022/02/02 08:28:00;;;;;;;34.63;17.75;;;;;;;0.11;100.00;94037.44;5049282;28;20044;-50
2022/02/02 08:30:29;;;;;;;28.73;13.20;;;;;;;0.34;100.00;94038.97;5046665;28;20094;-47
2022/02/02 08:32:59;;;;;;;26.42;12.85;;;;;;;0.48;100.00;94040.63;5047445;28;20083;-47
2022/02/02 08:35:28;;;;;;;34.28;14.88;;;;;;;0.57;100.00;94044.63;5047826;28;20061;-46
2022/02/02 08:40:34;;;;;;;33.10;13.00;;;;;;;0.64;100.00;94043.88;5047332;28;20425;-48
2022/02/02 08:43:08;;;;;;;38.40;15.10;;;;;;;0.63;100.00;94047.41;5047521;28;20051;-46
2022/02/02 08:45:38;;;;;;;13.88;7.38;;;;;;;0.61;100.00;94041.69;5056102;28;20430;-48
2022/02/02 08:48:08;;;;;;;76.90;23.83;;;;;;;0.66;100.00;94031.69;5048054;28;20057;-46
2022/02/02 08:50:49;;;;;;;34.38;15.68;;;;;;;0.88;100.00;94040.88;5046948;28;20037;-46
2022/02/02 09:01:09;;;;;;;17.17;10.55;;;;;;;1.16;100.00;94052.81;5046307;28;20041;-46
2022/02/02 09:06:22;;;;;;;31.15;12.60;;;;;;;1.41;100.00;94050.53;5048742;28;20049;-46
2022/02/02 09:08:51;;;;;;;31.33;13.43;;;;;;;1.49;99.88;94031.59;5048628;28;20040;-47
2022/02/02 09:25:10;;;;;;;20.00;10.15;;;;;;;1.86;95.08;94039.78;5047599;28;20045;-46
2022/02/02 09:35:52;;;;;;;20.90;10.30;;;;;;;1.96;92.91;94053.00;5046228;28;20504;-45
2022/02/02 09:38:20;;;;;;;21.23;11.55;;;;;;;1.96;93.20;94053.00;5052966;28;20053;-47
2022/02/02 09:43:25;;;;;;;23.95;10.35;;;;;;;1.90;93.57;94049.44;5046136;28;20045;-47
2022/02/02 09:46:03;;;;;;;28.27;11.45;;;;;;;1.67;93.05;94054.94;5046908;28;20550;-46
2022/02/02 09:48:43;;;;;;;27.52;9.00;;;;;;;1.41;94.39;94049.75;5046315;28;20124;-46
2022/02/02 09:51:14;;;;;;;15.30;8.25;;;;;;;1.26;94.96;94043.00;5046228;28;20080;-45
2022/02/02 09:53:57;;;;;;;17.73;9.27;;;;;;;1.05;96.76;94041.34;5050027;28;20056;-46
2022/02/02 09:59:46;;;;;;;23.00;10.23;;;;;;;0.89;97.46;94037.31;5046792;28;20037;-50
2022/02/02 10:05:28;;;;;;;17.35;9.50;;;;;;;0.74;99.14;94023.84;5046638;28;20047;-47
2022/02/02 10:13:48;;;;;;;19.88;9.80;;;;;;;0.62;99.56;94012.53;5048425;28;20122;-45
2022/02/02 10:16:14;;;;;;;24.77;9.57;;;;;;;0.54;99.40;94014.28;5048124;28;20048;-46
2022/02/02 10:18:41;;;;;;;17.40;8.35;;;;;;;0.59;99.62;94007.78;5045627;28;20128;-48
2022/02/02 10:21:08;;;;;;;22.88;9.43;;;;;;;0.54;99.89;94004.03;5047370;28;20045;-45
2022/02/02 10:23:41;;;;;;;21.45;9.75;;;;;;;0.61;100.00;94005.81;5046627;28;20044;-45
2022/02/02 10:26:22;;;;;;;32.35;10.25;;;;;;;0.66;99.33;94017.09;5049347;28;20068;-46
2022/02/02 10:29:07;;;;;;;23.15;9.20;;;;;;;0.65;98.38;94014.69;5048987;28;20037;-46
2022/02/02 10:31:42;;;;;;;29.63;12.82;;;;;;;0.76;98.81;94016.75;5045828;28;20411;-46
2022/02/02 10:34:14;;;;;;;27.70;13.25;;;;;;;0.71;98.02;94011.41;5047350;28;20045;-46
2022/02/02 10:36:43;;;;;;;17.33;7.68;;;;;;;0.73;98.32;94014.56;5045885;28;20041;-45
2022/02/02 10:39:14;;;;;;;17.10;9.15;;;;;;;0.79;97.39;94013.78;5046403;28;20080;-50
2022/02/02 10:42:01;;;;;;;26.30;9.80;;;;;;;0.52;98.65;94006.00;5046400;28;20076;-46
2022/02/02 10:44:38;;;;;;;24.17;12.38;;;;;;;0.67;99.10;94002.53;5045251;28;20072;-47
2022/02/02 10:47:26;;;;;;;21.83;9.45;;;;;;;0.61;98.50;94008.38;5043341;28;20098;-47
2022/02/02 10:50:16;;;;;;;25.30;11.10;;;;;;;0.80;97.79;93996.66;5046143;28;20502;-46
2022/02/02 10:53:23;;;;;;;27.80;9.10;;;;;;;0.97;96.26;94009.94;5045625;28;20037;-45
2022/02/02 11:06:38;;;;;;;21.23;9.65;;;;;;;1.11;94.27;94014.13;5044427;28;20045;-47
2022/02/02 11:09:10;;;;;;;34.08;16.92;;;;;;;1.19;93.88;94006.28;5042586;28;20041;-46
2022/02/02 11:11:43;;;;;;;30.17;12.90;;;;;;;1.15;93.99;94015.31;5050527;28;20048;-46
2022/02/02 11:14:36;;;;;;;26.95;12.80;;;;;;;1.28;93.86;94014.59;5050524;28;20143;-48
2022/02/02 11:17:21;;;;;;;31.13;12.00;;;;;;;1.13;93.99;94010.41;5028447;28;20494;-46
2022/02/02 11:19:51;;;;;;;43.42;13.80;;;;;;;1.25;92.73;94020.88;5051932;28;20051;-45
2022/02/02 11:22:31;;;;;;;21.80;10.40;;;;;;;1.18;92.48;94017.50;5045522;28;20041;-47
2022/02/02 11:25:04;;;;;;;14.15;7.68;;;;;;;1.23;93.27;94001.53;5045794;28;20518;-46
2022/02/02 11:27:56;;;;;;;31.25;12.45;;;;;;;1.45;93.83;94015.00;5045936;28;20503;-46
2022/02/02 11:30:22;;;;;;;33.92;13.75;;;;;;;1.57;93.34;94010.91;5040921;28;20061;-48
2022/02/02 11:32:57;;;;;;;20.40;10.20;;;;;;;1.82;91.65;93985.44;5045143;28;20387;-50
2022/02/02 11:35:41;;;;;;;19.52;9.27;;;;;;;1.71;90.01;93997.09;5045868;28;20059;-46
2022/02/02 11:38:28;;;;;;;15.07;6.68;;;;;;;1.79;89.56;93990.19;5041782;28;20059;-46
2022/02/02 11:42:20;;;;;;;19.20;7.90;;;;;;;1.82;88.76;93987.22;5039784;28;20037;-48
2022/02/02 11:44:27;;;;;;;19.15;10.88;;;;;;;1.92;88.30;93974.78;5037242;28;20120;-46
2022/02/02 11:49:54;;;;;;;24.92;9.43;;;;;;;2.09;87.35;93968.25;5049468;28;20072;-47
2022/02/02 11:52:39;;;;;;;22.50;9.18;;;;;;;2.34;84.11;93972.78;5040707;28;20040;-50
2022/02/02 11:55:26;;;;;;;40.90;14.45;;;;;;;2.51;84.25;93974.91;5046450;28;20057;-46
2022/02/02 11:58:01;;;;;;;18.35;10.10;;;;;;;2.41;83.77;93963.28;5043675;28;20410;-46
2022/02/02 12:00:43;;;;;;;36.35;11.57;;;;;;;3.06;81.26;93980.44;5044520;28;20033;-46
2022/02/02 12:03:37;;;;;;;32.30;10.57;;;;;;;3.28;80.06;93972.41;5044118;28;20533;-46
2022/02/02 12:06:34;;;;;;;17.63;7.78;;;;;;;3.82;77.37;93981.41;5046601;28;20080;-49
2022/02/02 12:21:28;;;;;;;37.42;16.58;;;;;;;4.66;73.42;93971.50;5025060;28;20038;-46
2022/02/02 12:48:48;;;;;;;29.02;12.25;;;;;;;5.52;65.67;93976.66;5047213;28;20131;-49
2022/02/02 12:55:08;;;;;;;24.08;10.20;;;;;;;5.58;62.51;93985.31;5045351;28;20051;-49
2022/02/02 12:57:19;;;;;;;22.02;9.15;;;;;;;4.99;63.42;93988.44;5046122;28;20047;-46
2022/02/02 13:02:18;;;;;;;23.02;11.07;;;;;;;3.93;66.58;93980.72;5046040;28;20049;-48
2022/02/02 13:04:56;;;;;;;24.77;11.27;;;;;;;3.62;69.03;93979.75;5045886;28;20056;-48
2022/02/02 13:07:30;;;;;;;26.63;10.48;;;;;;;3.68;68.98;93979.91;5046582;28;20422;-48
2022/02/02 13:10:00;;;;;;;26.73;10.50;;;;;;;3.68;68.48;93979.91;5047050;28;20131;-46
2022/02/02 13:12:41;;;;;;;28.75;10.18;;;;;;;3.45;68.96;93973.50;5049327;28;20112;-51
2022/02/02 13:15:24;;;;;;;23.50;9.55;;;;;;;3.25;70.21;93969.25;5046290;28;20056;-47
2022/02/02 13:18:17;;;;;;;24.02;10.43;;;;;;;3.10;71.64;93973.91;5046358;28;20052;-47
2022/02/02 13:20:59;;;;;;;31.67;9.93;;;;;;;3.25;70.19;93976.97;5047078;28;20037;-47
2022/02/02 13:29:13;;;;;;;17.15;8.32;;;;;;;2.22;74.53;93969.22;5046960;28;20033;-46
2022/02/02 13:32:51;;;;;;;16.50;7.85;;;;;;;2.38;74.43;93968.81;5050237;28;20044;-46
2022/02/02 13:35:11;;;;;;;29.58;12.13;;;;;;;2.57;75.32;93956.09;5043896;28;20068;-46
2022/02/02 14:01:27;;;;;;;31.90;16.52;;;;;;;3.84;75.39;93976.81;5052866;28;20048;-47
2022/02/02 14:09:13;;;;;;;29.23;15.00;;;;;;;6.61;62.05;93978.94;5045834;28;20055;-49
2022/02/02 14:33:49;;;;;;;26.30;13.50;;;;;;;8.47;50.32;93995.97;5047655;28;20053;-45
2022/02/02 14:36:20;;;;;;;20.48;11.07;;;;;;;7.83;51.19;93995.22;5050771;28;20053;-45
2022/02/02 14:39:03;;;;;;;24.85;10.73;;;;;;;7.38;52.30;93992.59;5049440;28;20536;-45
2022/02/02 14:46:41;;;;;;;20.38;11.18;;;;;;;5.03;58.86;93958.59;5045675;28;20052;-49
2022/02/02 14:49:14;;;;;;;23.80;12.07;;;;;;;4.77;61.05;93978.56;5045386;28;20063;-51
2022/02/02 14:52:25;;;;;;;24.90;13.45;;;;;;;4.53;62.80;93979.41;5046069;28;20094;-46
2022/02/02 14:55:27;;;;;;;34.95;15.30;;;;;;;4.72;63.44;93978.41;5043233;28;20077;-44
2022/02/02 15:27:40;;;;;;;177.05;64.53;;;;;;;3.98;65.42;93998.09;5043692;28;20051;-46
2022/02/02 15:32:41;;;;;;;75.50;29.50;;;;;;;3.23;69.04;93985.91;5046249;28;20056;-48
2022/02/02 15:35:08;;;;;;;91.03;36.08;;;;;;;2.91;70.30;93991.00;5045364;28;20053;-47
2022/02/02 15:37:50;;;;;;;66.88;25.77;;;;;;;2.64;71.49;93998.78;5043453;28;20048;-45
2022/02/02 15:40:18;;;;;;;109.25;36.88;;;;;;;2.45;73.40;93990.13;5045611;28;20037;-45
2022/02/02 15:59:10;;;;;;;78.57;32.40;;;;;;;1.43;81.53;94017.00;5044361;28;20045;-46
2022/02/02 16:04:30;;;;;;;51.72;19.42;;;;;;;1.09;83.94;94010.97;5048208;28;20037;-45
2022/02/02 16:07:01;;;;;;;27.77;12.90;;;;;;;1.02;85.10;94005.03;5048006;28;20052;-46
2022/02/02 16:09:36;;;;;;;28.92;10.60;;;;;;;0.97;85.93;94012.50;5051439;28;20049;-45
2022/02/02 16:12:28;;;;;;;22.67;9.85;;;;;;;0.83;87.35;94012.44;5059767;28;20044;-46
2022/02/02 16:15:02;;;;;;;29.98;12.45;;;;;;;0.78;88.80;94019.91;5047718;28;20052;-48
2022/02/02 16:36:18;;;;;;;26.88;12.00;;;;;;;0.73;92.31;94037.63;5045506;28;20080;-47
2022/02/02 16:38:57;;;;;;;48.90;21.98;;;;;;;0.66;92.99;94031.69;5047400;28;20045;-47
2022/02/02 16:44:12;;;;;;;84.75;32.75;;;;;;;0.51;93.32;94035.16;5048351;28;20047;-46
2022/02/02 16:46:39;;;;;;;100.68;40.90;;;;;;;0.61;93.54;94039.13;5046199;28;20102;-46
2022/02/02 16:49:05;;;;;;;112.53;44.00;;;;;;;0.60;94.14;94052.94;5047498;28;20194;-48
2022/02/02 16:51:32;;;;;;;90.35;40.45;;;;;;;0.66;93.95;94047.84;5047778;28;20033;-47
2022/02/02 16:54:01;;;;;;;92.35;38.20;;;;;;;0.68;94.21;94039.97;5046190;28;20047;-45
2022/02/02 17:34:37;;;;;;;61.30;24.88;;;;;;;0.38;91.12;94063.25;5047700;28;20037;-47
2022/02/02 17:40:10;;;;;;;35.88;17.45;;;;;;;0.30;90.35;94059.03;5023562;28;20052;-47
2022/02/02 18:20:09;;;;;;;25.30;9.73;;;;;;;-0.20;91.50;94105.13;5042987;28;20442;-48
2022/02/02 18:22:46;;;;;;;25.80;8.85;;;;;;;-0.18;90.75;94116.91;5047050;28;20049;-45
2022/02/02 18:25:22;;;;;;;30.85;12.75;;;;;;;-0.22;91.04;94117.31;5044235;28;20118;-46
2022/02/02 18:28:00;;;;;;;23.88;11.70;;;;;;;-0.28;91.55;94123.13;5047108;28;20037;-47
2022/02/02 18:33:48;;;;;;;27.95;14.05;;;;;;;-0.28;90.95;94127.47;5050288;28;20049;-48
2022/02/02 18:38:02;;;;;;;20.58;8.75;;;;;;;-0.35;90.94;94122.28;5049201;28;20057;-46
2022/02/02 18:48:21;;;;;;;10.10;5.65;;;;;;;-0.55;92.31;94121.28;5045252;28;20059;-46
2022/02/02 18:58:12;;;;;;;11.18;6.32;;;;;;;-0.70;93.46;94150.22;5043014;28;20052;-45
2022/02/02 19:55:41;;;;;;;9.38;5.15;;;;;;;-0.98;95.56;94193.50;5045994;28;20056;-46
2022/02/02 20:11:39;;;;;;;15.77;6.93;;;;;;;-1.06;97.14;94196.13;5045263;28;20130;-46
2022/02/02 20:14:06;;;;;;;17.90;7.40;;;;;;;-1.04;97.02;94199.31;5044157;28;20462;-46
2022/02/02 20:16:33;;;;;;;13.05;5.18;;;;;;;-1.06;97.21;94189.25;5043748;28;20129;-47
2022/02/02 20:19:04;;;;;;;23.35;7.30;;;;;;;-1.09;97.66;94197.28;5045473;28;20102;-50
2022/02/02 20:21:34;;;;;;;11.25;5.43;;;;;;;-1.10;98.48;94211.00;5042163;28;20045;-48
2022/02/02 20:24:04;;;;;;;18.05;6.93;;;;;;;-1.08;98.42;94198.06;5045119;28;20048;-46
2022/02/02 20:26:34;;;;;;;24.17;11.88;;;;;;;-1.05;98.39;94201.06;5046262;28;20106;-46
2022/02/02 20:29:02;;;;;;;28.20;9.63;;;;;;;-1.01;98.97;94194.66;5050451;28;20052;-50
2022/02/02 20:31:32;;;;;;;32.95;12.68;;;;;;;-1.02;98.31;94193.06;5047167;28;20576;-47
2022/02/02 20:33:59;;;;;;;20.40;11.85;;;;;;;-1.00;98.51;94201.34;5054584;28;20068;-45
2022/02/02 20:36:26;;;;;;;25.95;12.43;;;;;;;-1.00;98.50;94196.22;5049325;28;20056;-46
2022/02/02 20:38:53;;;;;;;26.30;11.20;;;;;;;-0.99;98.44;94192.72;5053545;28;20438;-46
2022/02/02 20:41:23;;;;;;;31.13;14.55;;;;;;;-0.97;98.46;94195.09;5049617;28;20128;-47
2022/02/02 21:00:17;;;;;;;22.75;9.13;;;;;;;-0.96;98.09;94194.91;5052157;28;20128;-46
2022/02/02 21:00:23;;;;;;;22.95;8.63;;;;;;;-0.98;98.07;94207.06;5008742;28;20546;-45
2022/02/02 21:03:19;;;;;;;19.67;7.82;;;;;;;-0.97;99.31;94190.78;5045956;28;20033;-46
2022/02/02 21:11:15;;;;;;;11.52;6.03;;;;;;;-1.04;100.00;94184.78;5049223;28;20071;-45
2022/02/02 21:13:45;;;;;;;11.70;6.05;;;;;;;-1.06;100.00;94191.81;5046851;28;20078;-46
2022/02/02 21:16:15;;;;;;;11.93;6.50;;;;;;;-1.18;100.00;94183.00;5048119;28;20126;-46
2022/02/02 21:18:43;;;;;;;10.93;4.45;;;;;;;-1.28;100.00;94183.22;5044377;28;20049;-46
2022/02/02 21:21:21;;;;;;;10.55;5.55;;;;;;;-1.36;100.00;94196.88;5041760;28;20045;-46
2022/02/02 21:29:19;;;;;;;11.55;5.57;;;;;;;-1.75;100.00;94202.94;5042001;28;20057;-45
2022/02/02 21:31:45;;;;;;;7.50;3.92;;;;;;;-1.80;100.00;94205.19;5043663;28;20473;-49
2022/02/02 21:34:12;;;;;;;12.13;6.07;;;;;;;-1.83;100.00;94200.41;5045426;28;20142;-45
2022/02/02 21:36:39;;;;;;;14.65;6.50;;;;;;;-1.89;100.00;94205.41;5044343;28;20090;-45
2022/02/02 21:39:09;;;;;;;20.63;6.90;;;;;;;-1.93;100.00;94199.84;5045687;28;20041;-46
2022/02/02 21:41:39;;;;;;;13.35;7.88;;;;;;;-2.01;100.00;94202.47;5045294;28;20498;-47
2022/02/02 21:44:09;;;;;;;15.20;7.93;;;;;;;-1.98;100.00;94202.09;5047594;28;20049;-47
2022/02/02 21:46:36;;;;;;;14.50;7.25;;;;;;;-1.98;100.00;94202.09;5047169;28;20036;-47
2022/02/02 21:49:04;;;;;;;18.20;6.40;;;;;;;-2.09;100.00;94192.28;5046094;28;20056;-46
2022/02/02 21:51:35;;;;;;;15.38;6.07;;;;;;;-1.98;100.00;94207.19;5045334;28;20037;-45
2022/02/02 21:54:02;;;;;;;14.10;6.88;;;;;;;-2.06;100.00;94215.72;5045033;28;20049;-51
2022/02/02 21:56:29;;;;;;;14.82;6.95;;;;;;;-2.12;100.00;94229.16;5048267;28;20101;-47
2022/02/02 21:58:57;;;;;;;13.25;5.47;;;;;;;-2.18;100.00;94222.97;5044184;28;20056;-46
2022/02/02 22:01:25;;;;;;;8.82;4.22;;;;;;;-2.12;100.00;94232.47;5045911;28;20040;-46
2022/02/02 22:03:52;;;;;;;9.35;5.22;;;;;;;-2.15;100.00;94227.72;5048226;28;20056;-49
2022/02/02 22:06:19;;;;;;;11.57;5.20;;;;;;;-2.12;100.00;94222.28;5048694;28;20056;-47
2022/02/02 22:08:45;;;;;;;8.30;4.20;;;;;;;-2.13;100.00;94230.88;5044639;28;20041;-46
2022/02/02 22:11:12;;;;;;;13.45;4.50;;;;;;;-2.07;100.00;94223.53;5045323;28;20103;-51
2022/02/02 22:13:43;;;;;;;8.07;5.13;;;;;;;-2.08;100.00;94227.06;5044400;28;20395;-46
2022/02/02 22:16:15;;;;;;;6.88;2.53;;;;;;;-2.12;100.00;94221.50;5043423;28;20578;-48
2022/02/02 22:18:43;;;;;;;10.70;3.70;;;;;;;-2.16;100.00;94231.25;5045318;28;20083;-46
2022/02/02 22:21:09;;;;;;;7.47;3.53;;;;;;;-2.19;100.00;94236.66;5046484;28;20094;-46
2022/02/02 22:23:40;;;;;;;9.90;5.80;;;;;;;-2.16;100.00;94236.34;5049462;28;20457;-45
2022/02/02 22:26:07;;;;;;;16.10;5.82;;;;;;;-2.21;100.00;94233.50;5043930;28;20103;-46
2022/02/02 22:28:35;;;;;;;15.45;6.20;;;;;;;-2.28;100.00;94227.47;5043808;28;20755;-46
2022/02/02 22:31:02;;;;;;;14.80;5.78;;;;;;;-2.27;100.00;94229.03;5044308;28;20057;-49
2022/02/02 22:33:29;;;;;;;12.00;5.80;;;;;;;-2.26;100.00;94240.06;5044448;28;20898;-48
2022/02/02 22:35:56;;;;;;;17.90;7.43;;;;;;;-2.20;100.00;94229.97;5041477;28;20103;-49
2022/02/02 22:38:24;;;;;;;17.20;7.70;;;;;;;-2.21;100.00;94237.81;5043266;28;20052;-46
2022/02/02 22:40:52;;;;;;;16.55;7.70;;;;;;;-2.21;100.00;94233.50;5044661;28;20468;-46
2022/02/02 22:43:19;;;;;;;16.25;5.35;;;;;;;-2.26;100.00;94238.28;5058947;28;20040;-46
2022/02/02 22:45:47;;;;;;;10.68;6.55;;;;;;;-2.23;100.00;94239.69;5043742;28;20041;-47
2022/02/02 22:48:17;;;;;;;11.07;5.32;;;;;;;-2.24;100.00;94244.03;5044872;28;20037;-46
2022/02/02 22:50:44;;;;;;;8.23;5.50;;;;;;;-2.21;100.00;94253.91;5044997;28;20068;-46
2022/02/02 22:53:10;;;;;;;13.55;7.75;;;;;;;-2.20;100.00;94245.28;5044186;28;20043;-47
2022/02/02 22:55:38;;;;;;;18.52;8.27;;;;;;;-2.20;100.00;94250.38;5042586;28;20049;-48
2022/02/02 22:58:04;;;;;;;18.42;9.40;;;;;;;-2.20;100.00;94250.38;5043252;28;20048;-46
2022/02/02 23:00:35;;;;;;;14.60;6.75;;;;;;;-2.22;100.00;94247.19;5039674;28;20053;-47
2022/02/02 23:03:10;;;;;;;17.63;7.53;;;;;;;-2.17;100.00;94254.38;5043146;28;20095;-46
2022/02/02 23:05:40;;;;;;;16.83;6.35;;;;;;;-2.26;100.00;94245.94;5043570;28;20396;-48